createdAt,value
2022-08-02T00:00:14.885Z,69.62
2022-08-02T00:02:43.898Z,69.74
2022-08-02T00:05:13.361Z,69.88
2022-08-02T00:07:44.224Z,68.83
2022-08-02T00:10:19.259Z,67.71
2022-08-02T00:12:50.197Z,68.21
2022-08-02T00:15:21.848Z,67.47
2022-08-02T00:17:52.340Z,68.56
2022-08-02T00:20:22.246Z,69.28
2022-08-02T00:22:51.748Z,70.84
2022-08-02T00:25:20.768Z,70.74
2022-08-02T00:27:52.646Z,71.07
2022-08-02T00:30:23.688Z,69.62
2022-08-02T00:32:52.045Z,69.10
2022-08-02T00:35:21.747Z,70.04
2022-08-02T00:37:52.097Z,70.47
2022-08-02T00:40:24.212Z,69.19
2022-08-02T00:43:04.365Z,69.44
2022-08-02T00:46:02.356Z,68.65
2022-08-02T00:48:21.011Z,68.75
2022-08-02T00:50:51.327Z,67.51
2022-08-02T00:53:24.639Z,68.49
2022-08-02T00:55:56.500Z,69.57
2022-08-02T00:58:29.102Z,69.62
2022-08-02T01:00:57.637Z,69.53
2022-08-02T01:03:26.223Z,69.50
2022-08-02T01:05:55.836Z,68.84
2022-08-02T01:08:40.007Z,69.15
2022-08-02T01:11:08.896Z,68.32
2022-08-02T01:13:43.427Z,67.77
2022-08-02T01:16:17.339Z,66.24
2022-08-02T01:18:52.503Z,66.31
2022-08-02T01:24:49.896Z,66.45
2022-08-02T01:27:36.515Z,66.14
2022-08-02T01:30:10.008Z,65.48
2022-08-02T01:32:46.568Z,65.75
2022-08-02T01:35:19.845Z,65.64
2022-08-02T01:37:54.498Z,66.02
2022-08-02T01:40:30.454Z,67.42
2022-08-02T01:43:01.074Z,68.01
2022-08-02T01:45:42.269Z,67.68
2022-08-02T01:48:17.890Z,67.01
2022-08-02T01:50:52.548Z,66.99
2022-08-02T01:53:39.893Z,67.68
2022-08-02T01:56:26.339Z,67.96
2022-08-02T01:58:56.117Z,68.07
2022-08-02T02:01:28.722Z,69.39
2022-08-02T02:03:57.540Z,69.36
2022-08-02T02:06:33.553Z,68.24
2022-08-02T02:09:17.518Z,68.66
2022-08-02T02:12:05.849Z,67.60
2022-08-02T02:14:38.641Z,67.01
2022-08-02T02:18:10.853Z,66.70
2022-08-02T02:20:01.388Z,65.26
2022-08-02T02:22:29.649Z,65.54
2022-08-02T02:25:01.066Z,65.53
2022-08-02T02:27:34.306Z,65.90
2022-08-02T02:30:07.675Z,65.45
2022-08-02T02:33:17.282Z,66.51
2022-08-02T02:35:49.148Z,67.49
2022-08-02T02:38:20.105Z,67.07
2022-08-02T02:40:53.922Z,66.97
2022-08-02T02:43:31.877Z,67.14
2022-08-02T02:46:06.053Z,67.08
2022-08-02T02:48:36.128Z,67.73
2022-08-02T02:51:14.093Z,68.18
2022-08-02T02:54:31.145Z,66.97
2022-08-02T02:56:32.742Z,67.51
2022-08-02T02:59:03.565Z,67.52
2022-08-02T03:01:55.291Z,68.25
2022-08-02T03:04:26.146Z,69.67
2022-08-02T03:07:01.901Z,70.65
2022-08-02T03:09:35.197Z,70.56
2022-08-02T03:12:05.505Z,70.36
2022-08-02T03:14:34.950Z,70.97
2022-08-02T03:17:03.085Z,70.51
2022-08-02T03:19:37.904Z,70.56
2022-08-02T03:22:08.005Z,70.49
2022-08-02T03:24:39.170Z,70.33
2022-08-02T03:27:12.380Z,69.96
2022-08-02T03:29:41.294Z,69.48
2022-08-02T03:32:09.869Z,70.68
2022-08-02T03:34:38.532Z,71.69
2022-08-02T03:37:08.654Z,69.76
2022-08-02T03:39:42.799Z,69.88
2022-08-02T03:42:22.520Z,71.10
2022-08-02T03:44:54.887Z,69.49
2022-08-02T03:47:25.389Z,70.60
2022-08-02T03:50:07.422Z,71.47
2022-08-02T03:52:37.926Z,71.40
2022-08-02T03:55:10.436Z,70.83
2022-08-02T03:57:40.686Z,70.49
2022-08-02T04:00:13.061Z,71.41
2022-08-02T04:02:42.583Z,72.59
2022-08-02T04:05:12.615Z,72.70
2022-08-02T04:08:33.556Z,72.84
2022-08-02T04:10:52.474Z,72.11
2022-08-02T04:13:31.506Z,70.99
2022-08-02T04:16:05.892Z,72.88
2022-08-02T04:18:41.751Z,73.02
2022-08-02T04:21:16.081Z,74.52
2022-08-02T04:23:52.602Z,76.25
2022-08-02T04:26:26.886Z,75.47
2022-08-02T04:28:59.103Z,73.58
2022-08-02T04:31:31.760Z,72.52
2022-08-02T04:34:01.086Z,73.69
2022-08-02T04:36:32.092Z,73.71
2022-08-02T04:39:02.211Z,74.10
2022-08-02T04:41:43.723Z,75.65
2022-08-02T04:44:14.501Z,76.18
2022-08-02T04:46:44.918Z,75.21
2022-08-02T04:49:21.715Z,74.87
2022-08-02T04:51:54.950Z,74.60
2022-08-02T04:54:25.819Z,74.92
2022-08-02T04:56:54.607Z,74.83
2022-08-02T04:59:22.829Z,75.72
2022-08-02T05:01:51.592Z,75.64
2022-08-02T05:04:20.318Z,76.05
2022-08-02T05:06:48.344Z,75.81
2022-08-02T05:09:16.365Z,76.83
2022-08-02T05:11:55.094Z,76.20
2022-08-02T05:14:23.883Z,75.74
2022-08-02T05:16:54.466Z,76.37
2022-08-02T05:19:29.584Z,75.02
2022-08-02T05:22:02.405Z,74.64
2022-08-02T05:24:30.439Z,74.75
2022-08-02T05:27:00.327Z,74.19
2022-08-02T05:29:53.145Z,74.01
2022-08-02T05:32:25.920Z,73.72
2022-08-02T05:34:54.542Z,73.36
2022-08-02T05:37:22.592Z,72.39
2022-08-02T05:39:55.664Z,72.38
2022-08-02T05:42:25.983Z,71.78
2022-08-02T05:44:56.405Z,72.64
2022-08-02T05:47:25.917Z,71.36
2022-08-02T05:49:55.234Z,72.28
2022-08-02T05:52:28.549Z,71.93
2022-08-02T05:55:09.801Z,72.76
2022-08-02T05:57:49.838Z,73.24
2022-08-02T06:00:18.791Z,72.79
2022-08-02T06:03:21.584Z,72.62
2022-08-02T06:05:58.336Z,72.78
2022-08-02T06:08:34.568Z,73.47
2022-08-02T06:11:09.670Z,71.17
2022-08-02T06:13:41.029Z,72.08
2022-08-02T06:16:14.091Z,71.88
2022-08-02T06:18:44.271Z,71.44
2022-08-02T06:22:31.598Z,70.41
2022-08-02T06:24:10.897Z,70.08
2022-08-02T06:26:39.797Z,70.62
2022-08-02T06:29:15.957Z,70.33
2022-08-02T06:31:46.787Z,71.37
2022-08-02T06:34:17.145Z,71.44
2022-08-02T06:36:55.702Z,70.83
2022-08-02T06:39:32.997Z,69.28
2022-08-02T06:42:07.855Z,69.16
2022-08-02T06:44:57.706Z,69.07
2022-08-02T06:47:29.178Z,68.79
2022-08-02T06:49:58.967Z,69.33
2022-08-02T06:52:30.107Z,69.77
2022-08-02T06:55:05.561Z,69.26
2022-08-02T06:57:34.770Z,69.04
2022-08-02T07:00:13.083Z,70.14
2022-08-02T07:02:42.669Z,70.54
2022-08-02T07:05:11.655Z,69.69
2022-08-02T07:07:40.063Z,68.63
2022-08-02T07:10:08.678Z,68.46
2022-08-02T07:12:37.055Z,68.38
2022-08-02T07:15:12.907Z,67.61
2022-08-02T07:17:41.384Z,66.83
2022-08-02T07:20:10.854Z,66.90
2022-08-02T07:22:44.178Z,66.69
2022-08-02T07:25:13.645Z,66.46
2022-08-02T07:27:43.961Z,66.06
2022-08-02T07:30:14.022Z,65.92
2022-08-02T07:32:45.160Z,66.05
2022-08-02T07:35:13.518Z,65.25
2022-08-02T07:37:55.271Z,63.68
2022-08-02T07:40:30.917Z,64.13
2022-08-02T07:43:03.789Z,64.49
2022-08-02T07:45:55.660Z,64.90
2022-08-02T07:48:29.826Z,65.05
2022-08-02T07:50:58.409Z,64.66
2022-08-02T07:53:30.607Z,64.50
2022-08-02T07:56:28.697Z,65.41
2022-08-02T07:58:56.797Z,65.83
2022-08-02T08:01:26.945Z,65.90
2022-08-02T08:03:56.489Z,64.90
2022-08-02T08:06:28.666Z,65.24
2022-08-02T08:08:58.777Z,63.86
2022-08-02T08:11:31.815Z,63.32
2022-08-02T08:14:00.081Z,62.79
2022-08-02T08:16:30.077Z,63.36
2022-08-02T08:18:58.728Z,63.62
2022-08-02T08:21:27.543Z,63.50
2022-08-02T08:23:59.738Z,62.12
2022-08-02T08:26:28.243Z,62.94
2022-08-02T08:28:56.660Z,62.95
2022-08-02T08:31:27.826Z,63.14
2022-08-02T08:33:59.507Z,62.54
2022-08-02T08:36:29.791Z,61.71
2022-08-02T08:39:00.787Z,61.81
2022-08-02T08:41:32.911Z,62.52
2022-08-02T08:44:09.153Z,61.48
2022-08-02T08:46:45.328Z,62.13
2022-08-02T08:49:24.764Z,60.98
2022-08-02T08:51:58.951Z,60.79
2022-08-02T08:54:35.238Z,60.82
2022-08-02T08:57:07.346Z,61.86
2022-08-02T08:59:42.986Z,60.05
2022-08-02T09:02:19.718Z,59.05
2022-08-02T09:04:56.936Z,59.24
2022-08-02T09:07:25.385Z,58.35
2022-08-02T09:09:53.600Z,59.84
2022-08-02T09:12:25.253Z,58.57
2022-08-02T09:14:58.077Z,58.01
2022-08-02T09:17:26.711Z,59.76
2022-08-02T09:20:11.998Z,60.97
2022-08-02T09:22:40.104Z,60.85
2022-08-02T09:25:17.107Z,59.87
2022-08-02T09:27:51.767Z,60.36
2022-08-02T09:30:20.022Z,59.59
2022-08-02T09:36:05.066Z,59.28
2022-08-02T09:38:38.049Z,59.95
2022-08-02T09:41:07.105Z,58.54
2022-08-02T09:43:57.945Z,58.50
2022-08-02T09:46:32.307Z,58.34
2022-08-02T09:49:05.318Z,56.44
2022-08-02T09:51:37.282Z,57.96
2022-08-02T09:54:09.309Z,56.91
2022-08-02T09:56:44.476Z,57.28
2022-08-02T09:59:14.919Z,56.51
2022-08-02T10:01:51.124Z,56.35
2022-08-02T10:04:34.252Z,54.53
2022-08-02T10:07:16.841Z,53.01
2022-08-02T10:09:49.049Z,55.15
2022-08-02T10:12:20.129Z,51.95
2022-08-02T10:14:51.490Z,52.56
2022-08-02T10:17:22.540Z,52.65
2022-08-02T10:20:00.251Z,53.19
2022-08-02T10:22:35.738Z,54.38
2022-08-02T10:25:05.244Z,54.18
2022-08-02T10:28:02.421Z,53.68
2022-08-02T10:30:27.747Z,51.40
2022-08-02T10:33:04.360Z,50.62
2022-08-02T10:35:39.431Z,51.45
2022-08-02T10:38:11.635Z,51.77
2022-08-02T10:40:52.640Z,50.42
2022-08-02T10:43:43.890Z,50.00
2022-08-02T10:46:42.928Z,49.62
2022-08-02T10:49:38.474Z,49.22
2022-08-02T10:52:10.030Z,48.37
2022-08-02T10:54:44.077Z,48.90
2022-08-02T10:57:19.066Z,51.13
2022-08-02T10:59:53.276Z,50.34
2022-08-02T11:02:39.571Z,49.22
2022-08-02T11:05:16.463Z,47.72
2022-08-02T11:07:47.636Z,48.29
2022-08-02T11:10:38.381Z,50.07
2022-08-02T11:13:15.056Z,50.17
2022-08-02T11:15:57.027Z,49.43
2022-08-02T11:19:02.234Z,47.41
2022-08-02T11:21:33.790Z,46.09
2022-08-02T11:24:26.678Z,46.66
2022-08-02T11:26:57.795Z,47.16
2022-08-02T11:29:38.493Z,47.88
2022-08-02T11:32:17.054Z,47.88
2022-08-02T11:34:48.384Z,47.75
2022-08-02T11:37:29.212Z,47.15
2022-08-02T11:39:59.239Z,47.21
2022-08-02T11:42:35.697Z,47.14
2022-08-02T11:45:04.425Z,47.83
2022-08-02T11:47:33.029Z,50.27
2022-08-02T11:50:08.963Z,50.27
2022-08-02T11:52:40.309Z,47.68
2022-08-02T11:55:10.765Z,48.50
2022-08-02T11:58:03.299Z,47.44
2022-08-02T12:00:35.270Z,46.81
2022-08-02T12:03:03.667Z,47.76
2022-08-02T12:06:05.276Z,47.63
2022-08-02T12:08:27.586Z,46.21
2022-08-02T12:10:56.412Z,46.72
2022-08-02T12:13:44.852Z,47.18
2022-08-02T12:16:45.137Z,47.36
2022-08-02T12:19:47.496Z,47.43
2022-08-02T12:22:18.687Z,46.73
2022-08-02T12:24:49.663Z,46.56
2022-08-02T12:27:36.445Z,45.92
2022-08-02T12:30:14.253Z,46.98
2022-08-02T12:32:48.631Z,47.19
2022-08-02T12:35:26.700Z,47.12
2022-08-02T12:37:59.487Z,47.65
2022-08-02T12:40:33.202Z,47.23
2022-08-02T12:43:12.748Z,47.93
2022-08-02T12:45:50.679Z,45.74
2022-08-02T12:48:37.752Z,45.35
2022-08-02T12:51:55.746Z,46.21
2022-08-02T12:54:18.059Z,46.52
2022-08-02T12:56:49.843Z,46.01
2022-08-02T12:59:39.535Z,47.72
2022-08-02T13:02:13.497Z,47.12
2022-08-02T13:04:49.700Z,47.16
2022-08-02T13:07:19.114Z,47.40
2022-08-02T13:09:48.850Z,46.91
2022-08-02T13:12:22.346Z,46.81
2022-08-02T13:14:53.346Z,46.65
2022-08-02T13:17:31.945Z,46.02
2022-08-02T13:20:03.861Z,45.75
2022-08-02T13:22:33.349Z,46.01
2022-08-02T13:25:02.076Z,46.32
2022-08-02T13:27:30.885Z,45.62
2022-08-02T13:30:02.504Z,46.52
2022-08-02T13:32:38.857Z,46.61
2022-08-02T13:35:09.894Z,47.35
2022-08-02T13:37:47.807Z,47.86
2022-08-02T13:40:22.122Z,47.40
2022-08-02T13:42:53.053Z,48.90
2022-08-02T13:45:24.355Z,48.04
2022-08-02T13:48:05.217Z,48.88
2022-08-02T13:50:34.973Z,46.99
2022-08-02T13:53:03.025Z,48.33
2022-08-02T13:55:43.517Z,48.68
2022-08-02T13:58:15.035Z,49.67
2022-08-02T14:00:43.387Z,48.92
2022-08-02T14:03:13.940Z,48.50
2022-08-02T14:05:48.133Z,48.99
2022-08-02T14:08:19.683Z,49.67
2022-08-02T14:10:48.945Z,49.40
2022-08-02T14:13:17.452Z,49.80
2022-08-02T14:15:48.947Z,50.91
2022-08-02T14:18:20.935Z,50.58
2022-08-02T14:20:52.077Z,49.65
2022-08-02T14:23:49.191Z,51.56
2022-08-02T14:26:27.225Z,50.30
2022-08-02T14:28:56.744Z,50.46
2022-08-02T14:31:30.277Z,50.25
2022-08-02T14:34:00.413Z,51.91
2022-08-02T14:36:28.724Z,51.23
2022-08-02T14:39:01.523Z,51.18
2022-08-02T14:41:33.946Z,52.13
2022-08-02T14:44:24.974Z,52.05
2022-08-02T14:46:56.687Z,50.62
2022-08-02T14:49:27.228Z,50.65
2022-08-02T14:51:55.931Z,50.64
2022-08-02T14:54:30.459Z,51.33
2022-08-02T14:57:01.412Z,52.23
2022-08-02T14:59:30.047Z,52.39
2022-08-02T15:01:58.703Z,52.49
2022-08-02T15:04:28.773Z,53.76
2022-08-02T15:07:02.992Z,53.27
2022-08-02T15:09:34.847Z,53.44
2022-08-02T15:12:13.228Z,53.12
2022-08-02T15:14:43.002Z,51.00
2022-08-02T15:17:15.081Z,51.72
2022-08-02T15:19:57.286Z,51.16
2022-08-02T15:22:33.964Z,51.74
2022-08-02T15:25:02.806Z,52.85
2022-08-02T15:27:33.723Z,53.81
2022-08-02T15:30:07.924Z,53.52
2022-08-02T15:32:52.967Z,52.19
2022-08-02T15:35:28.221Z,52.01
2022-08-02T15:37:58.204Z,51.81
2022-08-02T15:40:27.784Z,53.65
2022-08-02T15:42:57.057Z,52.71
2022-08-02T15:45:27.767Z,53.94
2022-08-02T15:47:59.057Z,53.91
2022-08-02T15:50:29.549Z,53.67
2022-08-02T15:52:57.576Z,55.40
2022-08-02T15:55:29.852Z,56.41
2022-08-02T15:58:18.165Z,56.63
2022-08-02T16:00:52.496Z,57.34
2022-08-02T16:03:25.287Z,57.43
2022-08-02T16:05:58.317Z,56.77
2022-08-02T16:08:35.431Z,56.96
2022-08-02T16:11:08.162Z,56.59
2022-08-02T16:13:56.785Z,56.39
2022-08-02T16:16:28.197Z,56.96
2022-08-02T16:18:57.586Z,56.88
2022-08-02T16:21:31.602Z,56.42
2022-08-02T16:24:02.581Z,57.55
2022-08-02T16:26:34.194Z,57.25
2022-08-02T16:29:05.057Z,58.03
2022-08-02T16:31:34.410Z,58.73
2022-08-02T16:34:04.788Z,58.14
2022-08-02T16:36:34.596Z,57.51
2022-08-02T16:39:03.022Z,58.46
2022-08-02T16:41:51.852Z,58.60
2022-08-02T16:44:27.577Z,59.37
2022-08-02T16:47:01.971Z,58.08
2022-08-02T16:50:07.309Z,57.67
2022-08-02T16:52:23.262Z,58.23
2022-08-02T16:54:52.801Z,58.35
2022-08-02T16:57:21.520Z,58.73
2022-08-02T16:59:58.254Z,58.50
2022-08-02T17:02:28.107Z,59.06
2022-08-02T17:04:57.463Z,58.60
2022-08-02T17:08:08.735Z,57.71
2022-08-02T17:10:18.848Z,58.55
2022-08-02T17:12:47.151Z,59.89
2022-08-02T17:16:01.052Z,60.22
2022-08-02T17:18:09.200Z,60.77
2022-08-02T17:20:38.358Z,59.31
2022-08-02T17:23:16.402Z,59.79
2022-08-02T17:25:54.081Z,59.80
2022-08-02T17:28:31.391Z,59.39
2022-08-02T17:31:01.623Z,59.39
2022-08-02T17:33:32.746Z,60.13
2022-08-02T17:36:02.190Z,60.87
2022-08-02T17:38:36.439Z,60.45
2022-08-02T17:41:37.338Z,60.98
2022-08-02T17:44:08.993Z,61.28
2022-08-02T17:46:40.346Z,61.48
2022-08-02T17:49:17.858Z,61.26
2022-08-02T17:52:15.877Z,61.46
2022-08-02T17:54:54.178Z,61.59
2022-08-02T17:57:22.247Z,61.26
2022-08-02T18:00:04.101Z,61.96
2022-08-02T18:02:35.467Z,61.66
2022-08-02T18:05:04.099Z,62.14
2022-08-02T18:07:49.541Z,62.01
2022-08-02T18:16:25.288Z,63.66
2022-08-02T18:24:02.645Z,61.94
2022-08-02T18:26:31.191Z,62.60
2022-08-02T18:29:04.324Z,62.78
2022-08-02T18:31:39.627Z,63.93
2022-08-02T18:34:12.515Z,64.15
2022-08-02T18:36:47.121Z,64.27
2022-08-02T18:39:16.170Z,64.78
2022-08-02T18:41:53.170Z,65.17
2022-08-02T18:44:22.260Z,66.22
2022-08-02T18:46:55.231Z,65.65
2022-08-02T18:49:46.119Z,66.71
2022-08-02T18:52:15.526Z,67.23
2022-08-02T18:54:45.929Z,66.77
2022-08-02T19:00:13.530Z,65.91
2022-08-02T19:02:43.928Z,66.90
2022-08-02T19:05:14.677Z,67.11
2022-08-02T19:07:51.005Z,67.50
2022-08-02T19:10:22.752Z,66.88
2022-08-02T19:12:51.557Z,67.89
2022-08-02T19:15:20.122Z,68.19
2022-08-02T19:17:57.052Z,68.15
2022-08-02T19:20:31.169Z,68.08
2022-08-02T19:23:09.229Z,68.11
2022-08-02T19:25:39.704Z,68.82
2022-08-02T19:28:26.207Z,68.75
2022-08-02T19:30:59.689Z,69.04
2022-08-02T19:34:04.735Z,69.05
2022-08-02T19:36:19.724Z,69.49
2022-08-02T19:38:53.319Z,69.55
2022-08-02T19:41:24.397Z,69.86
2022-08-02T19:44:25.011Z,69.86
2022-08-02T19:46:44.683Z,70.20
2022-08-02T19:49:39.260Z,69.60
2022-08-02T19:52:21.818Z,70.10
2022-08-02T19:55:58.349Z,69.92
2022-08-02T19:57:47.014Z,70.70
2022-08-02T20:00:21.392Z,70.78
2022-08-02T20:02:51.110Z,70.52
2022-08-02T20:05:26.537Z,70.05
2022-08-02T20:07:56.599Z,70.90
2022-08-02T20:10:26.532Z,70.90
2022-08-02T20:12:59.918Z,70.95
2022-08-02T20:15:56.198Z,70.79
2022-08-02T20:18:26.578Z,70.71
2022-08-02T20:20:56.979Z,70.80
2022-08-02T20:23:33.621Z,69.65
2022-08-02T20:26:06.366Z,70.25
2022-08-02T20:28:37.645Z,71.10
2022-08-02T20:31:10.782Z,71.38
2022-08-02T20:33:55.837Z,70.60
2022-08-02T20:36:35.677Z,71.29
2022-08-02T20:39:08.182Z,71.99
2022-08-02T20:41:46.461Z,71.98
2022-08-02T20:44:30.892Z,72.19
2022-08-02T20:47:01.778Z,71.96
2022-08-02T20:49:40.282Z,71.55
2022-08-02T20:52:23.416Z,71.77
2022-08-02T20:54:55.495Z,71.79
2022-08-02T20:57:48.484Z,72.81
2022-08-02T21:00:16.980Z,72.82
2022-08-02T21:02:45.586Z,73.08
2022-08-02T21:05:43.323Z,73.21
2022-08-02T21:08:19.221Z,73.34
2022-08-02T21:10:52.279Z,73.79
2022-08-02T21:13:27.638Z,73.91
2022-08-02T21:16:04.537Z,74.08
2022-08-02T21:18:40.048Z,74.10
2022-08-02T21:21:12.075Z,74.45
2022-08-02T21:23:48.876Z,74.31
2022-08-02T21:26:31.090Z,74.90
2022-08-02T21:29:03.621Z,75.24
2022-08-02T21:34:27.190Z,74.75
2022-08-02T21:36:57.275Z,74.71
2022-08-02T21:39:27.628Z,75.32
2022-08-02T21:41:57.107Z,74.69
2022-08-02T21:44:25.141Z,74.56
2022-08-02T21:46:57.031Z,74.92
2022-08-02T21:50:08.708Z,75.15
2022-08-02T21:52:18.852Z,75.57
2022-08-02T21:54:49.443Z,75.15
2022-08-02T21:57:20.169Z,75.33
2022-08-02T21:59:55.557Z,74.58
2022-08-02T22:02:30.772Z,74.75
2022-08-02T22:05:03.293Z,74.95
2022-08-02T22:07:38.330Z,74.74
2022-08-02T22:10:10.163Z,74.10
2022-08-02T22:12:38.430Z,75.06
2022-08-02T22:15:10.444Z,75.48
2022-08-02T22:17:52.878Z,75.35
2022-08-02T22:20:24.822Z,76.39
2022-08-02T22:22:54.034Z,77.11
2022-08-02T22:25:36.887Z,77.46
2022-08-02T22:28:38.160Z,76.44
2022-08-02T22:31:04.740Z,75.91
2022-08-02T22:34:00.924Z,76.25
2022-08-02T22:36:31.558Z,76.03
2022-08-02T22:39:04.338Z,75.55
2022-08-02T22:42:10.252Z,76.69
2022-08-02T22:44:39.098Z,77.54
2022-08-02T22:47:14.970Z,77.94
2022-08-02T22:49:52.991Z,78.36
2022-08-02T22:52:25.480Z,78.53
2022-08-02T22:54:55.110Z,78.63
2022-08-02T22:57:30.378Z,78.27
2022-08-02T22:58:46.368Z,66.07
2022-08-02T23:00:00.584Z,78.71
2022-08-02T23:02:30.002Z,79.25
2022-08-02T23:05:01.523Z,79.45
2022-08-02T23:07:36.263Z,79.60
2022-08-02T23:10:11.364Z,79.62
2022-08-02T23:12:43.368Z,79.53
2022-08-02T23:15:12.217Z,78.94
2022-08-02T23:17:58.119Z,78.71
2022-08-02T23:20:27.840Z,79.09
2022-08-02T23:22:59.648Z,79.34
2022-08-02T23:25:31.129Z,79.34
2022-08-02T23:28:15.095Z,78.93
2022-08-02T23:30:43.715Z,79.71
2022-08-02T23:33:14.075Z,79.73
2022-08-02T23:35:43.336Z,79.55
2022-08-02T23:38:12.653Z,79.28
2022-08-02T23:40:42.049Z,79.70
2022-08-02T23:43:14.497Z,79.31
2022-08-02T23:45:45.003Z,79.79
2022-08-02T23:48:15.110Z,79.93
2022-08-02T23:50:43.742Z,80.19
2022-08-02T23:53:13.248Z,79.58
2022-08-02T23:55:41.517Z,79.60
2022-08-02T23:58:12.941Z,79.85
